Search for airport 
image banner adimage banner adimage banner ad
image banner ad

CL21 - Sutter Amador Hospital

Located in Jackson, United States

ICAO - CL21, IATA -

Data provided by Airmate  

General information

Coordinates: N38°21'4" W120°45'50"
Elevation is 1246 feet MSL.
Magnetic variation is 16° East
View others Airports in California

Operational data

Special qualification required
Current time UTC:
Current local time:
METAR: KJAQ 141055Z AUTO 30003KT 10SM CLR 15/15 A3001 RMK AO1 T01500150
View NOTAMs / SUP AIP / TFR affecting this airport [VIEW]
Communications frequencies: [VIEW]

Runways:

Airport contact information

Address: Jackson United States

Satellite view of CL21